createdAt,value
2022-08-05T00:00:26.002Z,99999.78
2022-08-05T00:02:54.549Z,99997.50
2022-08-05T00:06:01.876Z,100007.22
2022-08-05T00:08:32.695Z,99999.16
2022-08-05T00:11:02.429Z,100005.13
2022-08-05T00:13:39.023Z,99998.53
2022-08-05T00:16:10.881Z,100001.63
2022-08-05T00:18:42.726Z,99996.47
2022-08-05T00:21:14.457Z,99999.34
2022-08-05T00:23:53.628Z,99998.09
2022-08-05T00:26:34.874Z,99997.91
2022-08-05T00:29:03.174Z,99998.53
2022-08-05T00:31:41.495Z,99998.75
2022-08-05T00:34:56.862Z,99996.47
2022-08-05T00:37:12.567Z,100004.72
2022-08-05T00:39:58.613Z,100001.41
2022-08-05T00:42:36.817Z,100003.88
2022-08-05T00:45:08.838Z,100002.88
2022-08-05T00:47:56.005Z,99999.34
2022-08-05T00:50:25.998Z,100011.34
2022-08-05T00:52:55.127Z,100003.47
2022-08-05T00:55:42.176Z,100002.25
2022-08-05T00:58:12.018Z,99999.75
2022-08-05T01:00:40.794Z,100002.25
2022-08-05T01:03:22.325Z,100003.88
2022-08-05T01:05:51.961Z,100001.19
2022-08-05T01:08:40.291Z,100000.59
2022-08-05T01:11:22.687Z,100008.00
2022-08-05T01:14:08.899Z,100009.06
2022-08-05T01:16:44.560Z,100002.66
2022-08-05T01:19:36.672Z,100015.47
2022-08-05T01:22:31.834Z,100006.78
2022-08-05T01:25:39.971Z,100013.59
2022-08-05T01:28:27.070Z,100016.06
2022-08-05T01:31:02.900Z,100028.44
2022-08-05T01:33:36.059Z,100026.41
2022-08-05T01:36:13.008Z,100032.59
2022-08-05T01:38:48.561Z,100036.31
2022-08-05T01:41:22.574Z,100033.81
2022-08-05T01:43:57.668Z,100033.03
2022-08-05T01:46:42.395Z,100046.44
2022-08-05T01:49:23.817Z,100036.50
2022-08-05T01:51:58.046Z,100034.03
2022-08-05T01:54:31.773Z,100038.78
2022-08-05T01:58:13.736Z,100040.84
2022-08-05T01:59:53.939Z,100038.56
2022-08-05T02:02:25.993Z,100045.53
2022-08-05T02:05:01.146Z,100031.91
2022-08-05T02:07:32.253Z,100038.13
2022-08-05T02:10:04.423Z,100037.94
2022-08-05T02:12:43.426Z,100041.47
2022-08-05T02:15:19.567Z,100030.31
2022-08-05T02:18:28.598Z,100029.50
2022-08-05T02:20:47.325Z,100028.44
2022-08-05T02:23:22.462Z,100022.69
2022-08-05T02:25:52.718Z,100026.16
2022-08-05T02:28:28.843Z,100033.59
2022-08-05T02:31:04.319Z,100035.06
2022-08-05T02:33:38.798Z,100027.56
2022-08-05T02:36:13.677Z,100027.38
2022-08-05T02:38:53.324Z,100016.84
2022-08-05T02:41:28.891Z,100029.50
2022-08-05T02:44:13.147Z,100024.13
2022-08-05T02:46:59.928Z,100028.84
2022-08-05T02:49:36.814Z,100030.50
2022-08-05T02:52:09.286Z,100028.25
2022-08-05T02:54:41.675Z,100029.50
2022-08-05T02:58:10.506Z,100030.72
2022-08-05T03:00:03.443Z,100033.19
2022-08-05T03:02:38.024Z,100041.00
2022-08-05T03:05:10.417Z,100036.09
2022-08-05T03:08:07.097Z,100040.03
2022-08-05T03:10:29.078Z,100038.56
2022-08-05T03:15:24.711Z,100041.25
2022-08-05T03:17:57.611Z,100037.28
2022-08-05T03:20:26.823Z,100043.50
2022-08-05T03:22:57.960Z,100039.97
2022-08-05T03:25:33.821Z,100046.38
2022-08-05T03:28:18.699Z,100038.31
2022-08-05T03:30:49.216Z,100034.38
2022-08-05T03:33:19.896Z,100042.66
2022-08-05T03:35:51.703Z,100040.22
2022-08-05T03:38:23.874Z,100036.91
2022-08-05T03:41:08.539Z,100028.66
2022-08-05T03:44:08.461Z,100038.78
2022-08-05T03:46:30.015Z,100046.84
2022-08-05T03:49:02.368Z,100040.22
2022-08-05T03:52:38.144Z,100033.44
2022-08-05T03:55:53.955Z,100038.16
2022-08-05T03:57:42.591Z,100031.16
2022-08-05T04:00:15.537Z,100027.41
2022-08-05T04:02:58.753Z,100021.63
2022-08-05T04:05:33.850Z,100023.28
2022-08-05T04:08:05.799Z,100021.63
2022-08-05T04:10:45.328Z,100019.59
2022-08-05T04:13:14.010Z,100016.50
2022-08-05T04:16:02.982Z,100011.56
2022-08-05T04:18:30.721Z,100010.31
2022-08-05T04:21:00.492Z,100015.91
2022-08-05T04:24:00.217Z,100007.22
2022-08-05T04:26:18.997Z,100002.25
2022-08-05T04:28:51.211Z,100004.31
2022-08-05T04:31:20.620Z,99997.31
2022-08-05T04:34:19.273Z,99996.69
2022-08-05T04:36:50.254Z,99998.75
2022-08-05T04:39:19.023Z,99991.94
2022-08-05T04:41:48.280Z,99996.47
2022-08-05T04:44:21.304Z,99988.44
2022-08-05T04:46:58.779Z,99995.66
2022-08-05T04:49:38.741Z,99987.81
2022-08-05T04:52:16.694Z,99989.88
2022-08-05T04:54:47.155Z,99999.78
2022-08-05T04:57:17.909Z,100003.09
2022-08-05T04:59:48.000Z,99999.59
2022-08-05T05:02:41.229Z,100002.28
2022-08-05T05:05:25.939Z,100002.31
2022-08-05T05:07:56.600Z,100005.59
2022-08-05T05:10:30.635Z,100002.69
2022-08-05T05:13:03.885Z,100007.84
2022-08-05T05:15:56.865Z,100010.94
2022-08-05T05:18:31.333Z,100015.09
2022-08-05T05:21:03.893Z,100013.63
2022-08-05T05:23:39.431Z,100008.25
2022-08-05T05:26:28.863Z,100009.09
2022-08-05T05:29:02.302Z,100001.66
2022-08-05T05:34:02.212Z,100012.19
2022-08-05T05:36:32.197Z,100018.00
2022-08-05T05:39:03.548Z,100015.31
2022-08-05T05:41:40.642Z,100023.97
2022-08-05T05:44:35.693Z,100021.50
2022-08-05T05:47:04.241Z,100021.50
2022-08-05T05:49:33.524Z,100030.81
2022-08-05T05:52:07.349Z,100034.75
2022-08-05T05:54:50.270Z,100025.84
2022-08-05T05:57:20.157Z,100027.91
2022-08-05T05:59:48.762Z,100033.06
2022-08-05T06:02:25.316Z,100031.22
2022-08-05T06:05:10.148Z,100032.47
2022-08-05T06:08:01.121Z,100040.34
2022-08-05T06:10:36.659Z,100039.09
2022-08-05T06:13:06.422Z,100049.66
2022-08-05T06:16:28.239Z,100055.63
2022-08-05T06:18:31.040Z,100059.53
2022-08-05T06:21:00.411Z,100056.03
2022-08-05T06:23:43.546Z,100065.13
2022-08-05T06:26:24.035Z,100063.06
2022-08-05T06:28:53.508Z,100078.81
2022-08-05T06:31:22.393Z,100077.16
2022-08-05T06:34:07.651Z,100078.81
2022-08-05T06:36:57.096Z,100084.19
2022-08-05T06:39:27.670Z,100095.75
2022-08-05T06:41:58.650Z,100094.94
2022-08-05T06:44:30.302Z,100087.91
2022-08-05T06:46:58.859Z,100097.03
2022-08-05T06:50:00.466Z,100092.06
2022-08-05T06:52:37.410Z,100085.63
2022-08-05T06:55:07.484Z,100072.19
2022-08-05T06:58:03.915Z,100080.25
2022-08-05T07:00:25.535Z,100081.31
2022-08-05T07:02:54.435Z,100084.41
2022-08-05T07:05:37.435Z,100096.19
2022-08-05T07:08:10.592Z,100098.66
2022-08-05T07:10:39.571Z,100093.28
2022-08-05T07:13:59.530Z,100094.97
2022-08-05T07:17:56.940Z,100099.31
2022-08-05T07:22:28.907Z,100097.41
2022-08-05T07:25:22.662Z,100106.13
2022-08-05T07:27:58.658Z,100094.53
2022-08-05T07:30:34.014Z,100110.25
2022-08-05T07:33:05.449Z,100107.78
2022-08-05T07:36:02.052Z,100113.78
2022-08-05T07:38:33.409Z,100116.47
2022-08-05T07:42:08.805Z,100106.56
2022-08-05T07:43:56.879Z,100107.16
2022-08-05T07:46:28.344Z,100107.78
2022-08-05T07:49:02.125Z,100107.16
2022-08-05T07:51:37.295Z,100111.91
2022-08-05T07:54:10.409Z,100106.75
2022-08-05T07:57:02.103Z,100109.44
2022-08-05T07:59:38.360Z,100104.25
2022-08-05T08:02:16.118Z,100103.22
2022-08-05T08:04:48.766Z,100098.69
2022-08-05T08:07:22.253Z,100102.22
2022-08-05T08:09:54.977Z,100096.00
2022-08-05T08:12:35.103Z,100090.22
2022-08-05T08:15:09.766Z,100091.44
2022-08-05T08:17:52.598Z,100091.66
2022-08-05T08:21:00.085Z,100090.81
2022-08-05T08:24:02.938Z,100089.38
2022-08-05T08:26:02.755Z,100081.50
2022-08-05T08:28:37.106Z,100085.88
2022-08-05T08:31:21.438Z,100081.50
2022-08-05T08:33:53.123Z,100083.19
2022-08-05T08:36:40.183Z,100091.03
2022-08-05T08:39:15.725Z,100084.81
2022-08-05T08:41:52.711Z,100084.63
2022-08-05T08:45:18.193Z,100085.22
2022-08-05T08:48:06.110Z,100076.34
2022-08-05T08:51:03.524Z,100084.41
2022-08-05T08:53:07.919Z,100071.97
2022-08-05T08:56:04.279Z,100070.13
2022-08-05T08:58:43.207Z,100071.78
2022-08-05T09:01:15.786Z,100067.44
2022-08-05T09:03:48.239Z,100065.59
2022-08-05T09:06:27.863Z,100057.13
2022-08-05T09:08:59.726Z,100056.06
2022-08-05T09:11:51.697Z,100062.50
2022-08-05T09:14:59.037Z,100057.13
2022-08-05T09:17:08.136Z,100055.84
2022-08-05T09:20:01.703Z,100055.44
2022-08-05T09:22:32.072Z,100051.31
2022-08-05T09:25:23.867Z,100053.16
2022-08-05T09:28:04.192Z,100046.56
2022-08-05T09:30:35.339Z,100048.41
2022-08-05T09:33:07.622Z,100052.53
2022-08-05T09:35:36.463Z,100058.75
2022-08-05T09:38:12.984Z,100053.38
2022-08-05T09:40:52.229Z,100050.06
2022-08-05T09:43:40.932Z,100047.38
2022-08-05T09:46:28.533Z,100045.31
2022-08-05T09:49:07.792Z,100048.00
2022-08-05T09:51:49.474Z,100052.34
2022-08-05T09:54:32.168Z,100048.63
2022-08-05T09:57:01.479Z,100056.91
2022-08-05T09:59:35.177Z,100055.88
2022-08-05T10:02:06.152Z,100054.63
2022-08-05T10:04:38.468Z,100051.09
2022-08-05T10:07:20.247Z,100041.16
2022-08-05T10:10:14.062Z,100035.78
2022-08-05T10:12:49.881Z,100029.81
2022-08-05T10:15:29.721Z,100029.56
2022-08-05T10:18:12.254Z,100026.06
2022-08-05T10:20:44.170Z,100026.28
2022-08-05T10:23:34.474Z,100027.13
2022-08-05T10:26:14.436Z,100025.03
2022-08-05T10:28:44.868Z,100023.97
2022-08-05T10:32:48.444Z,100029.16
2022-08-05T10:34:03.676Z,100034.31
2022-08-05T10:36:36.526Z,100037.00
2022-08-05T10:39:11.676Z,100034.31
2022-08-05T10:41:57.925Z,100040.53
2022-08-05T10:44:30.737Z,100038.69
2022-08-05T10:46:59.395Z,100039.50
2022-08-05T10:49:33.034Z,100036.59
2022-08-05T10:52:05.260Z,100034.13
2022-08-05T10:54:56.756Z,100040.34
2022-08-05T10:57:32.195Z,100042.19
2022-08-05T11:00:17.948Z,100043.03
2022-08-05T11:03:23.392Z,100034.97
2022-08-05T11:06:14.589Z,100036.81
2022-08-05T11:09:17.536Z,100043.63
2022-08-05T11:11:52.866Z,100038.44
2022-08-05T11:14:57.772Z,100024.78
2022-08-05T11:17:57.083Z,100015.09
2022-08-05T11:20:45.408Z,100016.72
2022-08-05T11:24:03.876Z,100014.66
2022-08-05T11:26:31.909Z,100007.22
2022-08-05T11:29:12.123Z,100005.97
2022-08-05T11:31:56.560Z,100002.25
2022-08-05T11:34:50.781Z,99998.75
2022-08-05T11:38:30.246Z,99997.47
2022-08-05T11:41:35.380Z,100001.44
2022-08-05T11:44:06.656Z,100007.66
2022-08-05T11:48:00.446Z,100017.38
2022-08-05T11:50:29.403Z,100015.91
2022-08-05T11:52:58.404Z,100016.72
2022-08-05T11:55:32.090Z,100016.72
2022-08-05T11:58:09.388Z,100011.34
2022-08-05T12:00:44.383Z,100018.41
2022-08-05T12:03:28.365Z,100023.78
2022-08-05T12:06:02.190Z,100034.34
2022-08-05T12:08:32.665Z,100017.56
2022-08-05T12:11:06.113Z,100035.34
2022-08-05T12:13:48.704Z,100039.28
2022-08-05T12:16:25.490Z,100024.59
2022-08-05T12:18:57.359Z,100027.91
2022-08-05T12:21:29.818Z,100026.47
2022-08-05T12:24:04.479Z,100027.06
2022-08-05T12:26:34.451Z,100027.06
2022-08-05T12:29:03.520Z,100037.41
2022-08-05T12:31:46.118Z,100038.03
2022-08-05T12:34:23.641Z,100045.31
2022-08-05T12:36:53.740Z,100052.75
2022-08-05T12:39:23.672Z,100048.19
2022-08-05T12:42:00.081Z,100061.44
2022-08-05T12:44:34.162Z,100073.84
2022-08-05T12:47:03.792Z,100071.16
2022-08-05T12:50:03.836Z,100060.19
2022-08-05T12:52:39.087Z,100063.94
2022-08-05T12:55:23.218Z,100059.34
2022-08-05T12:58:50.506Z,100066.81
2022-08-05T13:02:03.681Z,100070.13
2022-08-05T13:03:42.464Z,100070.75
2022-08-05T13:06:17.842Z,100072.59
2022-08-05T13:08:52.444Z,100074.66
2022-08-05T13:12:01.716Z,100065.97
2022-08-05T13:14:14.720Z,100071.59
2022-08-05T13:16:48.381Z,100082.16
2022-08-05T13:19:17.520Z,100086.06
2022-08-05T13:21:52.558Z,100091.44
2022-08-05T13:24:27.787Z,100104.25
2022-08-05T13:27:17.057Z,100090.59
2022-08-05T13:29:59.533Z,100093.31
2022-08-05T13:32:42.284Z,100076.34
2022-08-05T13:35:22.173Z,100100.75
2022-08-05T13:38:05.005Z,100124.97
2022-08-05T13:40:52.020Z,100152.88
2022-08-05T13:43:21.806Z,100176.06
2022-08-05T13:45:50.951Z,100195.09
2022-08-05T13:48:58.070Z,100201.31
2022-08-05T13:51:09.515Z,100213.91
2022-08-05T13:53:47.904Z,100193.00
2022-08-05T13:56:18.858Z,100177.50
2022-08-05T13:58:52.922Z,100180.63
2022-08-05T14:01:36.198Z,100187.84
2022-08-05T14:04:27.772Z,100195.91
2022-08-05T14:07:12.138Z,100211.63
2022-08-05T14:09:46.659Z,100207.28
2022-08-05T14:12:17.992Z,100214.09
2022-08-05T14:15:00.448Z,100221.16
2022-08-05T14:17:34.216Z,100223.84
2022-08-05T14:20:04.592Z,100228.19
2022-08-05T14:22:36.239Z,100224.88
2022-08-05T14:25:18.975Z,100203.34
2022-08-05T14:27:51.100Z,100202.94
2022-08-05T14:30:20.597Z,100209.38
2022-08-05T14:32:49.941Z,100203.16
2022-08-05T14:35:20.643Z,100202.31
2022-08-05T14:37:55.455Z,100200.47
2022-08-05T14:40:25.540Z,100188.88
2022-08-05T14:42:53.876Z,100168.19
2022-08-05T14:45:24.301Z,100168.19
2022-08-05T14:48:03.416Z,100159.91
2022-08-05T14:50:36.125Z,100167.78
2022-08-05T14:53:08.259Z,100169.44
2022-08-05T14:55:40.111Z,100179.56
2022-08-05T14:58:11.819Z,100186.41
2022-08-05T15:00:59.830Z,100188.06
2022-08-05T15:03:33.346Z,100195.09
2022-08-05T15:06:15.345Z,100174.41
2022-08-05T15:09:01.542Z,100179.78
2022-08-05T15:11:51.309Z,100174.41
2022-08-05T15:14:34.615Z,100179.78
2022-08-05T15:17:04.315Z,100173.56
2022-08-05T15:19:33.226Z,100168.19
2022-08-05T15:22:01.925Z,100161.78
2022-08-05T15:24:30.350Z,100150.19
2022-08-05T15:27:00.446Z,100147.50
2022-08-05T15:29:29.884Z,100141.69
2022-08-05T15:32:02.394Z,100129.09
2022-08-05T15:34:34.616Z,100121.00
2022-08-05T15:37:06.233Z,100124.75
2022-08-05T15:40:41.534Z,100117.91
2022-08-05T15:42:28.807Z,100119.56
2022-08-05T15:45:14.058Z,100121.84
2022-08-05T15:47:43.700Z,100122.25
2022-08-05T15:50:15.864Z,100119.38
2022-08-05T15:52:53.107Z,100112.94
2022-08-05T15:55:24.501Z,100112.75
2022-08-05T15:57:54.564Z,100098.25
2022-08-05T16:00:25.983Z,100103.03
2022-08-05T16:03:11.893Z,100098.06
2022-08-05T16:05:41.720Z,100096.38
2022-08-05T16:08:10.249Z,100098.03
2022-08-05T16:10:44.375Z,100105.69
2022-08-05T16:13:23.263Z,100107.78
2022-08-05T16:15:52.439Z,100108.59
2022-08-05T16:18:20.819Z,100113.56
2022-08-05T16:20:56.470Z,100118.47
2022-08-05T16:23:24.863Z,100123.44
2022-08-05T16:26:03.916Z,100116.81
2022-08-05T16:28:33.545Z,100118.47
2022-08-05T16:31:01.992Z,100113.50
2022-08-05T16:33:41.800Z,100107.72
2022-08-05T16:36:11.405Z,100119.28
2022-08-05T16:38:39.688Z,100111.00
2022-08-05T16:42:12.406Z,100114.34
2022-08-05T16:43:58.673Z,100115.16
2022-08-05T16:46:26.969Z,100116.78
2022-08-05T16:48:55.551Z,100117.22
2022-08-05T16:51:24.368Z,100113.09
2022-08-05T16:54:05.211Z,100112.25
2022-08-05T16:56:41.740Z,100106.47
2022-08-05T16:59:15.636Z,100108.13
2022-08-05T17:01:53.691Z,100111.84
2022-08-05T17:04:26.490Z,100115.16
2022-08-05T17:06:56.933Z,100121.34
2022-08-05T17:09:29.471Z,100120.72
2022-08-05T17:11:59.384Z,100116.78
2022-08-05T17:14:34.338Z,100131.25
2022-08-05T17:17:05.626Z,100131.25
2022-08-05T17:19:34.032Z,100136.63
2022-08-05T17:22:03.888Z,100140.56
2022-08-05T17:24:38.700Z,100143.06
2022-08-05T17:27:11.957Z,100145.31
2022-08-05T17:29:48.929Z,100160.59
2022-08-05T17:32:20.015Z,100157.69
2022-08-05T17:34:49.635Z,100164.13
2022-08-05T17:37:36.006Z,100170.31
2022-08-05T17:40:12.108Z,100172.16
2022-08-05T17:42:49.781Z,100176.31
2022-08-05T17:45:22.380Z,100175.06
2022-08-05T17:47:54.419Z,100170.72
2022-08-05T17:50:28.571Z,100170.31
2022-08-05T17:53:04.936Z,100164.13
2022-08-05T17:55:39.774Z,100164.31
2022-08-05T17:58:11.252Z,100168.88
2022-08-05T18:00:47.449Z,100164.13
2022-08-05T18:06:12.271Z,100173.00
2022-08-05T18:08:45.855Z,100173.81
2022-08-05T18:11:23.975Z,100173.81
2022-08-05T18:13:54.728Z,100177.94
2022-08-05T18:16:25.108Z,100177.53
2022-08-05T18:18:53.410Z,100187.25
2022-08-05T18:21:25.946Z,100178.53
2022-08-05T18:23:55.082Z,100179.38
2022-08-05T18:26:29.169Z,100179.78
2022-08-05T18:28:58.217Z,100172.97
2022-08-05T18:31:33.863Z,100169.88
2022-08-05T18:34:05.821Z,100172.31
2022-08-05T18:36:36.429Z,100176.69
2022-08-05T18:39:06.490Z,100180.38
2022-08-05T18:41:53.625Z,100188.44
2022-08-05T18:44:34.678Z,100185.34
2022-08-05T18:47:05.274Z,100186.59
2022-08-05T18:49:57.920Z,100185.94
2022-08-05T18:52:35.866Z,100191.56
2022-08-05T18:55:10.234Z,100183.25
2022-08-05T18:57:49.987Z,100191.94
2022-08-05T19:00:27.012Z,100187.38
2022-08-05T19:03:03.317Z,100189.00
2022-08-05T19:06:12.802Z,100191.09
2022-08-05T19:08:30.601Z,100187.75
2022-08-05T19:11:04.585Z,100182.38
2022-08-05T19:13:35.880Z,100187.75
2022-08-05T19:16:25.003Z,100187.75
2022-08-05T19:18:57.118Z,100191.09
2022-08-05T19:21:34.491Z,100183.84
2022-08-05T19:24:08.931Z,100178.91
2022-08-05T19:26:54.206Z,100176.84
2022-08-05T19:29:26.783Z,100176.03
2022-08-05T19:32:05.639Z,100175.38
2022-08-05T19:34:39.026Z,100166.06
2022-08-05T19:37:07.997Z,100170.19
2022-08-05T19:39:46.000Z,100171.66
2022-08-05T19:42:19.662Z,100177.22
2022-08-05T19:45:05.737Z,100175.75
2022-08-05T19:47:34.790Z,100170.00
2022-08-05T19:50:10.512Z,100176.63
2022-08-05T19:52:40.507Z,100180.56
2022-08-05T19:56:11.619Z,100172.91
2022-08-05T19:58:14.519Z,100172.50
2022-08-05T20:00:47.782Z,100167.53
2022-08-05T20:03:16.160Z,100172.50
2022-08-05T20:05:50.214Z,100170.22
2022-08-05T20:08:20.363Z,100164.63
2022-08-05T20:10:49.328Z,100167.50
2022-08-05T20:13:30.022Z,100165.41
2022-08-05T20:16:07.148Z,100165.41
2022-08-05T20:18:36.327Z,100168.03
2022-08-05T20:21:07.788Z,100156.25
2022-08-05T20:23:40.714Z,100152.75
2022-08-05T20:26:20.346Z,100153.41
2022-08-05T20:28:50.860Z,100152.19
2022-08-05T20:31:22.885Z,100151.34
2022-08-05T20:33:57.300Z,100157.75
2022-08-05T20:36:27.069Z,100156.50
2022-08-05T20:38:57.904Z,100145.56
2022-08-05T20:41:43.111Z,100151.16
2022-08-05T20:44:19.403Z,100151.34
2022-08-05T20:46:58.993Z,100144.69
2022-08-05T20:49:27.582Z,100134.97
2022-08-05T20:51:58.212Z,100136.03
2022-08-05T20:54:42.859Z,100140.59
2022-08-05T20:57:24.578Z,100136.91
2022-08-05T21:00:20.589Z,100133.59
2022-08-05T21:02:56.955Z,100133.59
2022-08-05T21:05:25.902Z,100135.63
2022-08-05T21:08:08.121Z,100131.25
2022-08-05T21:10:36.749Z,100130.44
2022-08-05T21:13:11.259Z,100133.13
2022-08-05T21:15:51.133Z,100125.28
2022-08-05T21:18:19.668Z,100135.22
2022-08-05T21:20:51.656Z,100132.28
2022-08-05T21:23:23.549Z,100132.78
2022-08-05T21:25:55.418Z,100132.28
2022-08-05T21:28:30.870Z,100137.31
2022-08-05T21:30:59.882Z,100131.06
2022-08-05T21:33:36.929Z,100139.13
2022-08-05T21:36:08.809Z,100134.56
2022-08-05T21:38:40.571Z,100129.81
2022-08-05T21:41:09.582Z,100130.25
2022-08-05T21:43:41.790Z,100131.94
2022-08-05T21:46:11.883Z,100130.25
2022-08-05T21:48:40.677Z,100127.13
2022-08-05T21:52:16.327Z,100135.81
2022-08-05T21:54:03.629Z,100126.50
2022-08-05T21:56:32.490Z,100131.47
2022-08-05T21:59:01.286Z,100129.63
2022-08-05T22:01:36.696Z,100133.13
2022-08-05T22:04:05.354Z,100130.25
2022-08-05T22:06:36.955Z,100133.94
2022-08-05T22:09:13.971Z,100127.75
2022-08-05T22:11:43.692Z,100127.31
2022-08-05T22:14:33.227Z,100123.19
2022-08-05T22:17:06.807Z,100130.25
2022-08-05T22:20:00.578Z,100122.84
2022-08-05T22:22:26.908Z,100119.50
2022-08-05T22:25:21.020Z,100116.19
2022-08-05T22:28:11.379Z,100124.63
2022-08-05T22:30:44.217Z,100117.84
2022-08-05T22:33:56.890Z,100121.56
2022-08-05T22:36:15.795Z,100120.91
2022-08-05T22:38:48.554Z,100116.97
2022-08-05T22:42:05.099Z,100116.97
2022-08-05T22:44:09.509Z,100113.69
2022-08-05T22:46:40.908Z,100109.13
2022-08-05T22:49:23.225Z,100111.00
2022-08-05T22:52:05.414Z,100108.31
2022-08-05T22:54:36.956Z,100109.31
2022-08-05T22:57:07.344Z,100102.28
2022-08-05T22:59:45.304Z,100110.94
2022-08-05T23:02:29.208Z,100110.75
2022-08-05T23:05:01.978Z,100106.63
2022-08-05T23:10:20.075Z,100110.59
2022-08-05T23:12:51.665Z,100120.06
2022-08-05T23:15:27.183Z,100116.56
2022-08-05T23:18:02.124Z,100117.38
2022-08-05T23:20:33.194Z,100116.75
2022-08-05T23:23:03.506Z,100115.31
2022-08-05T23:25:52.816Z,100116.16
2022-08-05T23:28:29.033Z,100117.38
2022-08-05T23:31:15.756Z,100115.31
2022-08-05T23:34:03.908Z,100116.94
2022-08-05T23:36:38.737Z,100118.97
2022-08-05T23:39:10.055Z,100107.00
2022-08-05T23:41:48.729Z,100109.50
2022-08-05T23:44:19.684Z,100114.03
2022-08-05T23:46:48.264Z,100114.66
2022-08-05T23:49:23.871Z,100119.81
2022-08-05T23:52:19.704Z,100108.63
2022-08-05T23:54:50.976Z,100102.88
2022-08-05T23:57:19.710Z,100112.78
